Sullivan, NH (03445)

12:51 PM EST on January 21, 2017 (GMT -0500)
Sullivan | | Change Station
Active Advisory: Gale Watch

Elev 1442 ft 43.01 °N, 72.24 °W | Updated 25 seconds ago

Overcast
Overcast
39.5 °F
Feels Like 40 °F
N
3.0
Wind Variable Wind from WSW

Today
High -- | Low -- °F
--% Chance of Precip.
Yesterday
High -- | Low -- °F
Precip. -- in
Pressure 29.83 in
Visibility 10.0 miles
Clouds Overcast 4000 ft
Windchill 40 °F
Dew Point 34 °F
Humidity 81%
Rainfall 0.02 in
Snow Depth Not available.
7:13 AM 4:47 PM
Waning Crescent, 33% visible
METAR KEEN 211656Z AUTO 00000KT 10SM OVC040 05/02 A2977 RMK AO2 PRESFR SLP100 T00500022
Pressure 29.83 in
Visibility 10.0 miles
Clouds Overcast 4000 ft
Windchill 40 °F
Dew Point 34 °F
Humidity 81%
Rainfall 0.02 in
Snow Depth Not available.
7:13 AM 4:47 PM
Waning Crescent, 33% visible
METAR KEEN 211656Z AUTO 00000KT 10SM OVC040 05/02 A2977 RMK AO2 PRESFR SLP100 T00500022

Get Your Daily Forecast Email!

Thanks for signing up!

Be on the lookout for a verification email in your inbox.

You'll start receiving the daily forecast at 8 AM.

×

10-Day Weather Forecast

Almanac

Astronomy

Jan. 21, 2017 Rise Set
Actual Time
Civil Twilight
Nautical Twilight
Astronomical Twilight
Moon
Length of Visible Light
Length of Day
Tomorrow will be .
, % of the Moon is Illuminated

Today's Extremes

State Highs State Lows

Community

WunderPhotos

Upload Photos

1,962,540 photos uploaded!

WunderBlog® & News

Nearby

Air Quality

  Air Quality AQ Index Pollutant
Not available.

Snow Depth

Station Depth Elevation

Earthquake Activity

City Distance Mag. Time & Date
Minimum magnitude displayed is 2.5.

Coastal Water Temperatures

Place Temperature

Stations

Nearby Weather Stations

Station Location Temp. Windchill Dew Point Humidity Wind Precip. Elev Updated Type
                   

Watches & Warnings

Gale Watch
Issued: 10:47 AM EST Jan. 21, 2017 – National Weather Service

... Gale watch remains in effect from Monday morning through late
Monday night...

* winds and seas... east winds 25 to 35 kt with gusts up to 40
kt. Seas 4 to 7 feet.

Precautionary/preparedness actions...

A gale watch is issued when the risk of gale force winds of 34 to
47 knots has significantly increased... but the specific timing
and/or location is still uncertain. It is intended to provide
additional lead time for mariners who may wish to consider
altering their plans.